Time;durP1;ratioP1;P1;durP2;ratioP2;P2;SDS_P1;SDS_P2;PMS_P1;PMS_P2;Temp;Humidity;BMP_temperature;BMP_pressure;BME280_temperature;BME280_humidity;BME280_pressure;Samples;Min_cycle;Max_cycle;Signal;HPM_P1;HPM_P2
2022/01/19 00:00:58;;;;;;;28.50;8.93;;;;;;;;;;4942364;29;20034;-72
2022/01/19 00:03:25;;;;;;;24.25;9.07;;;;;;;;;;4924932;29;20038;-72
2022/01/19 00:05:51;;;;;;;23.70;9.80;;;;;;;;;;4941932;29;20434;-73
2022/01/19 00:08:21;;;;;;;52.70;15.77;;;;;;;;;;4942495;29;20028;-72
2022/01/19 00:10:48;;;;;;;43.47;14.60;;;;;;;;;;4941818;29;20036;-72
2022/01/19 00:13:15;;;;;;;40.22;15.52;;;;;;;;;;4942170;29;20138;-72
2022/01/19 00:15:41;;;;;;;42.88;14.10;;;;;;;;;;4941895;29;20032;-71
2022/01/19 00:18:07;;;;;;;40.25;13.13;;;;;;;;;;4921439;29;20145;-72
2022/01/19 00:20:34;;;;;;;36.85;11.95;;;;;;;;;;4939113;29;20450;-69
2022/01/19 00:23:02;;;;;;;29.85;10.45;;;;;;;;;;4938802;29;20429;-71
2022/01/19 00:25:28;;;;;;;15.43;6.03;;;;;;;;;;4921747;29;20552;-71
2022/01/19 00:27:54;;;;;;;17.67;6.47;;;;;;;;;;4938707;29;20031;-71
2022/01/19 00:30:21;;;;;;;16.20;4.53;;;;;;;;;;4921510;29;20131;-70
2022/01/19 00:32:47;;;;;;;17.52;4.28;;;;;;;;;;4921559;29;20023;-71
2022/01/19 00:35:13;;;;;;;14.13;4.43;;;;;;;;;;4921533;29;20036;-70
2022/01/19 00:37:41;;;;;;;14.63;4.45;;;;;;;;;;4921488;29;20058;-72
2022/01/19 00:40:08;;;;;;;17.83;4.43;;;;;;;;;;4921460;29;20031;-71
2022/01/19 00:42:34;;;;;;;12.93;3.55;;;;;;;;;;4938887;29;20031;-72
2022/01/19 00:45:01;;;;;;;19.40;3.85;;;;;;;;;;4921384;29;20035;-72
2022/01/19 00:47:27;;;;;;;13.88;3.08;;;;;;;;;;4938400;29;20099;-71
2022/01/19 00:49:54;;;;;;;14.40;3.15;;;;;;;;;;4938256;29;20043;-72
2022/01/19 00:52:21;;;;;;;8.13;2.60;;;;;;;;;;4928033;29;20039;-72
2022/01/19 00:54:47;;;;;;;17.70;3.30;;;;;;;;;;4943185;29;20103;-71
2022/01/19 00:57:13;;;;;;;19.30;4.57;;;;;;;;;;4921207;29;20035;-71
2022/01/19 00:59:40;;;;;;;38.53;12.20;;;;;;;;;;4921136;29;20028;-71
2022/01/19 01:02:06;;;;;;;34.35;9.80;;;;;;;;;;4937942;29;20421;-72
2022/01/19 01:04:32;;;;;;;23.80;9.18;;;;;;;;;;4938080;29;20472;-71
2022/01/19 01:06:59;;;;;;;33.17;10.85;;;;;;;;;;4938059;29;20024;-72
2022/01/19 01:09:26;;;;;;;24.40;7.45;;;;;;;;;;4938506;29;20048;-71
2022/01/19 01:12:01;;;;;;;21.95;8.00;;;;;;;;;;4938142;29;20062;-72
2022/01/19 01:20:04;;;;;;;23.17;6.47;;;;;;;;;;4938074;29;20149;-71
2022/01/19 01:22:30;;;;;;;15.70;5.40;;;;;;;;;;4920684;29;20028;-71
2022/01/19 01:24:57;;;;;;;15.95;4.95;;;;;;;;;;4920588;29;20544;-72
2022/01/19 01:27:23;;;;;;;15.95;5.07;;;;;;;;;;4938225;29;20067;-72
2022/01/19 01:29:50;;;;;;;18.30;5.32;;;;;;;;;;4937210;29;20046;-71
2022/01/19 01:32:16;;;;;;;15.32;6.95;;;;;;;;;;4937571;29;20086;-72
2022/01/19 01:34:42;;;;;;;21.13;7.10;;;;;;;;;;4937514;29;20083;-71
2022/01/19 01:37:09;;;;;;;16.58;5.75;;;;;;;;;;4937439;29;20496;-71
2022/01/19 01:39:35;;;;;;;20.70;5.38;;;;;;;;;;4937759;29;20032;-70
2022/01/19 01:42:07;;;;;;;21.08;4.68;;;;;;;;;;4920365;29;20027;-71
2022/01/19 01:44:38;;;;;;;15.93;4.97;;;;;;;;;;4920268;29;20035;-69
2022/01/19 01:47:05;;;;;;;17.08;4.55;;;;;;;;;;4920222;29;20028;-71
2022/01/19 01:54:52;;;;;;;11.15;4.60;;;;;;;;;;4937525;29;20082;-72
2022/01/19 01:57:18;;;;;;;18.05;4.65;;;;;;;;;;4937044;29;20036;-70
2022/01/19 01:59:44;;;;;;;14.68;5.47;;;;;;;;;;4919852;29;20544;-71
2022/01/19 02:02:10;;;;;;;14.63;4.10;;;;;;;;;;4926924;29;20051;-71
2022/01/19 02:04:40;;;;;;;16.30;4.47;;;;;;;;;;4937018;29;20031;-71
2022/01/19 02:09:58;;;;;;;13.85;4.57;;;;;;;;;;4937031;29;20406;-71
2022/01/19 02:25:58;;;;;;;22.58;6.50;;;;;;;;;;4937509;29;20032;-70
2022/01/19 02:40:28;;;;;;;22.08;7.53;;;;;;;;;;4935245;29;20046;-72
2022/01/19 02:42:32;;;;;;;23.13;6.90;;;;;;;;;;4932338;29;20060;-72
2022/01/19 02:49:54;;;;;;;18.75;5.90;;;;;;;;;;4936315;29;20040;-72
2022/01/19 02:52:21;;;;;;;19.13;6.40;;;;;;;;;;4936344;29;20023;-72
2022/01/19 02:54:48;;;;;;;19.50;6.30;;;;;;;;;;4935067;29;20028;-71
2022/01/19 02:57:15;;;;;;;17.10;5.07;;;;;;;;;;4937038;29;20028;-73
2022/01/19 03:10:37;;;;;;;18.95;7.85;;;;;;;;;;4936698;29;20131;-73
2022/01/19 03:13:04;;;;;;;25.00;8.90;;;;;;;;;;4936103;29;20106;-71
2022/01/19 03:15:30;;;;;;;21.15;6.43;;;;;;;;;;4936030;29;20028;-72
2022/01/19 03:18:00;;;;;;;20.98;7.32;;;;;;;;;;4936219;29;20086;-72
2022/01/19 03:20:27;;;;;;;24.27;8.88;;;;;;;;;;4918976;29;20071;-72
2022/01/19 03:25:39;;;;;;;21.85;7.32;;;;;;;;;;4936309;29;20043;-71
2022/01/19 03:28:06;;;;;;;19.88;6.88;;;;;;;;;;4918898;29;20051;-72
2022/01/19 03:30:36;;;;;;;22.88;6.97;;;;;;;;;;4918861;29;20050;-72
2022/01/19 03:33:02;;;;;;;20.20;6.57;;;;;;;;;;4935938;29;20023;-72
2022/01/19 03:35:28;;;;;;;18.52;6.43;;;;;;;;;;4936408;29;20385;-72
2022/01/19 03:37:55;;;;;;;18.05;5.72;;;;;;;;;;4935893;29;20024;-72
2022/01/19 03:40:22;;;;;;;18.73;6.88;;;;;;;;;;4918754;29;20485;-72
2022/01/19 03:42:48;;;;;;;17.13;6.18;;;;;;;;;;4918791;29;20123;-71
2022/01/19 03:45:15;;;;;;;17.70;6.25;;;;;;;;;;4918725;29;20480;-70
2022/01/19 03:47:46;;;;;;;21.50;6.22;;;;;;;;;;4918722;29;20370;-73
2022/01/19 03:50:12;;;;;;;21.10;6.18;;;;;;;;;;4918730;29;20126;-73
2022/01/19 03:52:38;;;;;;;17.60;5.75;;;;;;;;;;4937717;29;20038;-72
2022/01/19 03:55:05;;;;;;;22.05;6.50;;;;;;;;;;4922352;29;20035;-72
2022/01/19 03:57:32;;;;;;;26.88;5.43;;;;;;;;;;4922223;29;20028;-73
2022/01/19 03:59:58;;;;;;;16.77;5.50;;;;;;;;;;4939762;29;20059;-72
2022/01/19 04:02:25;;;;;;;19.42;6.00;;;;;;;;;;4939110;29;20131;-72
2022/01/19 04:05:07;;;;;;;18.25;5.30;;;;;;;;;;4939165;29;20042;-72
2022/01/19 04:07:34;;;;;;;16.27;5.70;;;;;;;;;;4922164;29;20031;-72
2022/01/19 04:10:01;;;;;;;21.08;6.80;;;;;;;;;;4939021;29;20059;-72
2022/01/19 04:12:47;;;;;;;23.15;6.60;;;;;;;;;;4922255;29;20028;-73
2022/01/19 04:15:15;;;;;;;18.95;5.97;;;;;;;;;;4939671;29;20116;-71
2022/01/19 04:17:49;;;;;;;13.85;5.57;;;;;;;;;;4921926;29;20032;-73
2022/01/19 04:20:16;;;;;;;22.13;6.63;;;;;;;;;;4926386;29;20027;-71
2022/01/19 04:22:42;;;;;;;22.83;6.40;;;;;;;;;;4922029;29;20568;-71
2022/01/19 04:25:08;;;;;;;19.35;7.22;;;;;;;;;;4938849;29;20389;-71
2022/01/19 04:27:35;;;;;;;23.17;5.72;;;;;;;;;;4938796;29;20023;-70
2022/01/19 04:35:08;;;;;;;18.17;5.75;;;;;;;;;;4938678;29;20028;-72
2022/01/19 04:37:47;;;;;;;15.05;5.28;;;;;;;;;;4921486;29;20020;-73
2022/01/19 05:04:54;;;;;;;14.35;5.05;;;;;;;;;;4937496;29;20039;-73
2022/01/19 05:10:04;;;;;;;18.35;5.85;;;;;;;;;;4937938;29;20043;-73
2022/01/19 05:15:18;;;;;;;20.73;6.43;;;;;;;;;;4938249;29;20050;-71
2022/01/19 05:17:45;;;;;;;16.98;5.97;;;;;;;;;;4937873;29;20164;-73
2022/01/19 05:20:12;;;;;;;24.27;8.18;;;;;;;;;;4938356;29;20024;-73
2022/01/19 05:22:38;;;;;;;34.83;11.88;;;;;;;;;;4920782;29;20122;-72
2022/01/19 05:25:05;;;;;;;35.78;11.32;;;;;;;;;;4937690;29;20363;-72
2022/01/19 05:27:32;;;;;;;37.75;12.13;;;;;;;;;;4937732;29;20168;-73
2022/01/19 05:29:58;;;;;;;41.70;10.88;;;;;;;;;;4937557;29;20500;-73
2022/01/19 05:32:24;;;;;;;36.92;11.38;;;;;;;;;;4937610;29;20363;-72
2022/01/19 05:34:51;;;;;;;43.80;12.43;;;;;;;;;;4920456;29;20038;-72
2022/01/19 05:37:17;;;;;;;33.97;11.98;;;;;;;;;;4920262;29;20059;-73
2022/01/19 05:39:43;;;;;;;31.75;11.93;;;;;;;;;;4937424;29;20028;-72
2022/01/19 05:42:14;;;;;;;35.55;11.10;;;;;;;;;;4937255;29;20046;-71
2022/01/19 05:44:43;;;;;;;38.65;12.35;;;;;;;;;;4920341;29;20035;-72
2022/01/19 05:47:11;;;;;;;39.70;14.77;;;;;;;;;;4920243;29;20028;-71
2022/01/19 05:49:38;;;;;;;59.97;19.25;;;;;;;;;;4937405;29;20095;-71
2022/01/19 05:52:05;;;;;;;70.50;21.30;;;;;;;;;;4937296;29;20028;-72
2022/01/19 05:54:31;;;;;;;41.60;16.63;;;;;;;;;;4937143;29;20031;-72
2022/01/19 05:56:58;;;;;;;47.20;15.20;;;;;;;;;;4937088;29;20024;-71
2022/01/19 05:59:25;;;;;;;54.53;18.27;;;;;;;;;;4900978;29;20027;-68
2022/01/19 06:01:51;;;;;;;55.72;19.15;;;;;;;;;;4924745;29;20092;-69
2022/01/19 06:04:17;;;;;;;63.70;22.63;;;;;;;;;;4926221;29;20474;-68
2022/01/19 06:06:43;;;;;;;62.05;20.77;;;;;;;;;;4931754;29;20568;-68
2022/01/19 06:12:09;;;;;;;57.88;18.08;;;;;;;;;;4925146;29;20035;-66
2022/01/19 06:14:36;;;;;;;34.60;13.85;;;;;;;;;;4919478;29;20039;-66
2022/01/19 06:17:03;;;;;;;33.38;11.02;;;;;;;;;;4936020;29;20059;-65
2022/01/19 06:19:29;;;;;;;48.50;13.32;;;;;;;;;;4917691;29;20107;-66
2022/01/19 06:21:55;;;;;;;43.42;12.88;;;;;;;;;;4917687;29;20035;-68
2022/01/19 06:24:22;;;;;;;35.30;12.63;;;;;;;;;;4917646;29;20095;-71
2022/01/19 06:26:48;;;;;;;40.88;12.52;;;;;;;;;;4900665;29;20080;-70
2022/01/19 06:29:14;;;;;;;43.33;12.23;;;;;;;;;;4917650;29;20577;-69
2022/01/19 06:31:41;;;;;;;42.15;13.10;;;;;;;;;;4917511;29;20434;-71
2022/01/19 06:34:07;;;;;;;46.17;13.50;;;;;;;;;;4900522;29;20032;-70
2022/01/19 06:36:33;;;;;;;37.40;12.00;;;;;;;;;;4900469;29;20056;-70
2022/01/19 06:39:00;;;;;;;36.30;13.07;;;;;;;;;;4900444;29;20123;-68
2022/01/19 06:41:26;;;;;;;51.47;17.40;;;;;;;;;;4900350;29;20092;-69
2022/01/19 06:43:52;;;;;;;43.15;16.80;;;;;;;;;;4900505;29;20036;-68
2022/01/19 06:46:18;;;;;;;40.72;14.73;;;;;;;;;;4900349;29;20532;-69
2022/01/19 06:48:44;;;;;;;58.45;17.90;;;;;;;;;;4900318;29;20033;-68
2022/01/19 06:51:10;;;;;;;44.35;14.88;;;;;;;;;;4900266;29;20036;-67
2022/01/19 06:53:36;;;;;;;39.95;14.38;;;;;;;;;;4917255;29;20032;-67
2022/01/19 06:56:02;;;;;;;40.67;12.60;;;;;;;;;;4918825;29;20082;-67
2022/01/19 06:58:29;;;;;;;45.97;13.73;;;;;;;;;;4936540;29;20028;-68
2022/01/19 07:00:56;;;;;;;44.05;13.52;;;;;;;;;;4918831;29;20091;-68
2022/01/19 07:03:22;;;;;;;39.13;14.07;;;;;;;;;;4918976;29;20488;-69
2022/01/19 07:05:49;;;;;;;45.72;14.68;;;;;;;;;;4919044;29;20028;-67
2022/01/19 07:08:15;;;;;;;36.95;12.90;;;;;;;;;;4918986;29;20477;-69
2022/01/19 07:10:42;;;;;;;41.28;13.85;;;;;;;;;;4935933;29;20473;-67
2022/01/19 07:13:08;;;;;;;44.70;13.70;;;;;;;;;;4935939;29;20107;-67
2022/01/19 07:15:36;;;;;;;49.33;15.15;;;;;;;;;;4918956;29;20036;-68
2022/01/19 07:18:03;;;;;;;40.17;14.32;;;;;;;;;;4935955;29;20433;-67
2022/01/19 07:20:29;;;;;;;36.30;14.60;;;;;;;;;;4918881;29;20473;-71
2022/01/19 07:23:00;;;;;;;39.90;13.30;;;;;;;;;;4918899;29;20153;-68
2022/01/19 07:25:26;;;;;;;33.70;13.48;;;;;;;;;;4918906;29;20052;-68
2022/01/19 07:27:52;;;;;;;40.53;13.45;;;;;;;;;;4921439;29;20032;-69
2022/01/19 07:30:18;;;;;;;39.05;13.30;;;;;;;;;;4922535;29;20043;-66
2022/01/19 07:32:48;;;;;;;35.53;13.63;;;;;;;;;;4922654;29;20030;-69
2022/01/19 07:35:14;;;;;;;31.35;12.27;;;;;;;;;;4922506;29;20495;-69
2022/01/19 07:37:41;;;;;;;34.38;11.80;;;;;;;;;;4922290;29;20031;-68
2022/01/19 07:40:07;;;;;;;37.83;14.43;;;;;;;;;;4922618;29;20027;-67
2022/01/19 07:42:33;;;;;;;34.35;13.85;;;;;;;;;;4922424;29;20028;-69
2022/01/19 07:44:59;;;;;;;58.88;20.20;;;;;;;;;;4922368;29;20469;-68
2022/01/19 07:47:28;;;;;;;75.95;25.27;;;;;;;;;;4922339;29;20082;-69
2022/01/19 07:49:56;;;;;;;90.05;29.77;;;;;;;;;;4922209;29;20441;-68
2022/01/19 07:52:22;;;;;;;61.25;24.48;;;;;;;;;;4926058;29;20044;-69
2022/01/19 07:54:48;;;;;;;74.85;27.15;;;;;;;;;;4915500;29;20037;-69
2022/01/19 07:57:14;;;;;;;74.00;27.48;;;;;;;;;;4920164;29;20161;-68
2022/01/19 07:59:40;;;;;;;63.60;26.90;;;;;;;;;;4920609;29;20024;-67
2022/01/19 08:02:06;;;;;;;70.38;29.42;;;;;;;;;;4920226;29;20060;-69
2022/01/19 08:04:32;;;;;;;81.03;30.20;;;;;;;;;;4903227;29;20028;-67
2022/01/19 08:06:58;;;;;;;65.95;27.48;;;;;;;;;;4903064;29;20039;-66
2022/01/19 08:09:25;;;;;;;51.20;18.13;;;;;;;;;;4903050;29;20072;-69
2022/01/19 08:11:52;;;;;;;26.77;10.10;;;;;;;;;;4919972;29;20071;-67
2022/01/19 08:14:18;;;;;;;22.60;8.50;;;;;;;;;;4919785;29;20024;-66
2022/01/19 08:16:46;;;;;;;14.82;5.40;;;;;;;;;;4919002;29;20024;-68
2022/01/19 08:27:21;;;;;;;13.60;5.43;;;;;;;;;;5111476;27;20494;-70
2022/01/19 08:29:47;;;;;;;13.38;5.07;;;;;;;;;;5109806;28;20031;-70
2022/01/19 08:32:13;;;;;;;14.02;4.75;;;;;;;;;;5111244;28;20024;-68
2022/01/19 08:34:40;;;;;;;14.88;5.13;;;;;;;;;;5111168;28;20028;-68
2022/01/19 08:37:08;;;;;;;12.20;5.18;;;;;;;;;;5111036;28;20020;-67
2022/01/19 08:39:34;;;;;;;13.57;5.07;;;;;;;;;;5109666;28;20391;-68
2022/01/19 08:42:02;;;;;;;14.40;5.03;;;;;;;;;;5109697;28;20484;-66
2022/01/19 08:44:28;;;;;;;17.70;5.10;;;;;;;;;;5109662;28;20471;-69
2022/01/19 08:46:54;;;;;;;13.80;5.30;;;;;;;;;;5109660;28;20055;-66
2022/01/19 08:49:20;;;;;;;14.18;5.38;;;;;;;;;;5109499;28;20024;-69
2022/01/19 08:51:46;;;;;;;12.50;5.43;;;;;;;;;;5109121;28;20031;-68
2022/01/19 08:54:12;;;;;;;12.80;5.20;;;;;;;;;;5109417;28;20024;-68
2022/01/19 08:56:39;;;;;;;14.73;5.15;;;;;;;;;;5109339;28;20035;-67
2022/01/19 08:59:05;;;;;;;12.70;5.90;;;;;;;;;;5109296;28;20472;-68
2022/01/19 09:01:31;;;;;;;18.38;5.22;;;;;;;;;;5109316;28;20422;-69
2022/01/19 09:03:57;;;;;;;13.43;5.28;;;;;;;;;;5109289;28;20020;-69
2022/01/19 09:06:24;;;;;;;14.73;5.75;;;;;;;;;;5109137;28;20023;-70
2022/01/19 09:08:51;;;;;;;27.02;6.72;;;;;;;;;;5110314;28;20129;-69
2022/01/19 09:11:17;;;;;;;16.27;6.00;;;;;;;;;;5110322;28;20035;-67
2022/01/19 09:13:44;;;;;;;13.75;5.90;;;;;;;;;;5108540;28;20034;-67
2022/01/19 09:16:10;;;;;;;18.40;6.25;;;;;;;;;;5108555;28;20070;-67
2022/01/19 09:18:36;;;;;;;13.80;4.90;;;;;;;;;;5109736;28;20024;-67
2022/01/19 09:21:03;;;;;;;13.57;6.22;;;;;;;;;;5108016;28;20028;-68
2022/01/19 09:23:30;;;;;;;18.73;5.78;;;;;;;;;;5109012;28;20095;-66
2022/01/19 09:25:56;;;;;;;14.20;5.50;;;;;;;;;;5108410;28;20555;-67
2022/01/19 09:28:23;;;;;;;18.50;5.55;;;;;;;;;;5108771;28;20024;-68
2022/01/19 09:30:49;;;;;;;18.85;5.88;;;;;;;;;;5091817;28;20036;-69
2022/01/19 09:33:23;;;;;;;16.60;6.75;;;;;;;;;;5108626;28;20027;-67
2022/01/19 09:35:53;;;;;;;21.48;6.10;;;;;;;;;;5110333;28;20040;-67
2022/01/19 09:38:20;;;;;;;12.98;5.43;;;;;;;;;;5080806;28;20046;-68
2022/01/19 09:40:46;;;;;;;14.25;6.13;;;;;;;;;;5094991;28;20028;-67
2022/01/19 09:43:14;;;;;;;17.20;6.25;;;;;;;;;;5096055;28;20027;-67
2022/01/19 09:45:40;;;;;;;20.90;6.00;;;;;;;;;;5095038;28;20035;-67
2022/01/19 09:48:07;;;;;;;19.52;6.78;;;;;;;;;;5096614;28;20012;-67
2022/01/19 09:50:34;;;;;;;12.98;6.18;;;;;;;;;;5096273;28;20024;-70
2022/01/19 09:53:03;;;;;;;14.00;5.53;;;;;;;;;;5095802;28;20026;-69
2022/01/19 09:55:29;;;;;;;18.38;6.03;;;;;;;;;;5095777;28;20045;-67
2022/01/19 09:57:55;;;;;;;13.90;6.00;;;;;;;;;;5094693;28;20024;-70
2022/01/19 10:00:21;;;;;;;15.90;6.45;;;;;;;;;;5095957;28;20028;-68
2022/01/19 10:03:06;;;;;;;15.55;5.75;;;;;;;;;;5094574;28;20028;-71
2022/01/19 10:05:32;;;;;;;14.90;5.15;;;;;;;;;;5094584;28;20082;-68
2022/01/19 10:08:00;;;;;;;13.75;5.28;;;;;;;;;;5094462;28;20020;-70
2022/01/19 10:10:26;;;;;;;16.50;5.60;;;;;;;;;;5095554;28;20172;-68
2022/01/19 10:18:43;;;;;;;13.50;5.63;;;;;;;;;;5073253;28;20107;-68
2022/01/19 10:21:16;;;;;;;18.42;6.32;;;;;;;;;;5056204;28;20039;-70
2022/01/19 10:23:50;;;;;;;14.75;5.95;;;;;;;;;;5074846;28;20036;-68
2022/01/19 10:26:27;;;;;;;13.70;5.57;;;;;;;;;;5095329;28;20040;-68
2022/01/19 10:28:57;;;;;;;14.20;5.60;;;;;;;;;;5094167;28;20078;-67
2022/01/19 10:31:24;;;;;;;10.25;4.97;;;;;;;;;;5094021;28;20027;-68
2022/01/19 10:34:08;;;;;;;16.33;5.95;;;;;;;;;;5094051;28;20032;-68
2022/01/19 10:36:45;;;;;;;17.55;6.80;;;;;;;;;;5095160;28;20111;-68
2022/01/19 10:39:11;;;;;;;18.73;6.47;;;;;;;;;;5093815;28;20115;-69
2022/01/19 10:41:56;;;;;;;15.57;5.93;;;;;;;;;;5093825;28;20480;-69
2022/01/19 10:44:49;;;;;;;21.20;5.05;;;;;;;;;;5093792;28;20074;-68
2022/01/19 10:47:18;;;;;;;17.63;6.10;;;;;;;;;;5090047;28;20082;-70
2022/01/19 10:49:48;;;;;;;17.25;5.95;;;;;;;;;;5092686;28;20472;-71
2022/01/19 10:52:26;;;;;;;15.77;5.38;;;;;;;;;;5093613;28;20032;-68
2022/01/19 10:54:52;;;;;;;16.15;5.82;;;;;;;;;;5093378;28;20476;-69
2022/01/19 10:57:19;;;;;;;15.27;5.68;;;;;;;;;;5093410;28;20031;-67
2022/01/19 10:59:45;;;;;;;13.30;5.28;;;;;;;;;;5093476;28;20028;-69
2022/01/19 11:02:12;;;;;;;13.73;5.10;;;;;;;;;;5093449;28;20107;-67
2022/01/19 11:04:40;;;;;;;15.98;5.80;;;;;;;;;;5093389;28;20039;-68
2022/01/19 11:07:08;;;;;;;12.05;5.07;;;;;;;;;;5093278;28;20028;-71
2022/01/19 11:09:35;;;;;;;13.52;4.82;;;;;;;;;;5093325;28;20035;-68
2022/01/19 11:12:05;;;;;;;14.23;5.90;;;;;;;;;;5093247;28;20154;-69
2022/01/19 11:14:32;;;;;;;13.32;5.65;;;;;;;;;;5093277;28;20028;-67
2022/01/19 11:16:58;;;;;;;17.80;5.38;;;;;;;;;;5094265;28;20481;-68
2022/01/19 11:19:25;;;;;;;14.02;5.60;;;;;;;;;;5093370;28;20042;-70
2022/01/19 11:21:56;;;;;;;13.32;5.03;;;;;;;;;;5092978;28;20524;-69
2022/01/19 11:24:31;;;;;;;10.13;5.05;;;;;;;;;;5093352;28;20024;-66
2022/01/19 11:26:58;;;;;;;19.27;5.88;;;;;;;;;;5092847;28;20158;-66
2022/01/19 11:29:25;;;;;;;18.70;5.45;;;;;;;;;;5092946;28;20396;-67
2022/01/19 11:31:55;;;;;;;10.98;5.38;;;;;;;;;;5092906;28;20024;-67
2022/01/19 11:34:54;;;;;;;15.13;5.00;;;;;;;;;;5092899;28;20468;-67
2022/01/19 11:37:36;;;;;;;13.95;4.68;;;;;;;;;;5049283;28;20369;-67
2022/01/19 11:40:05;;;;;;;12.45;4.72;;;;;;;;;;5093467;28;20028;-68
2022/01/19 11:42:31;;;;;;;13.07;4.85;;;;;;;;;;5092803;28;20118;-70
2022/01/19 11:44:58;;;;;;;12.93;4.40;;;;;;;;;;5092598;28;20016;-67
2022/01/19 11:47:29;;;;;;;11.70;4.20;;;;;;;;;;5092579;28;20031;-67
2022/01/19 11:49:55;;;;;;;10.77;4.13;;;;;;;;;;5092534;28;20020;-69
2022/01/19 11:52:25;;;;;;;10.15;3.88;;;;;;;;;;5092477;28;20028;-68
2022/01/19 11:54:52;;;;;;;13.38;4.63;;;;;;;;;;5093757;28;20023;-68
2022/01/19 11:57:22;;;;;;;9.50;4.53;;;;;;;;;;5093561;28;20074;-67
2022/01/19 11:59:48;;;;;;;11.68;4.60;;;;;;;;;;5092210;28;20028;-66
2022/01/19 12:02:32;;;;;;;12.20;4.72;;;;;;;;;;5092411;28;20115;-71
2022/01/19 12:04:58;;;;;;;;;;;;;;;;;;5094229;28;20020;-70
2022/01/19 12:07:33;;;;;;;14.70;5.05;;;;;;;;;;5093852;28;19999;-71
2022/01/19 12:09:59;;;;;;;17.10;5.72;;;;;;;;;;5093917;28;20028;-70
2022/01/19 12:12:30;;;;;;;13.60;5.72;;;;;;;;;;5092365;28;20487;-71
2022/01/19 12:14:57;;;;;;;16.23;5.25;;;;;;;;;;5092589;28;20379;-70
2022/01/19 12:17:27;;;;;;;9.25;3.83;;;;;;;;;;5093397;28;20024;-69
2022/01/19 12:19:55;;;;;;;13.90;5.57;;;;;;;;;;5093844;28;20016;-69
2022/01/19 12:22:26;;;;;;;13.65;5.00;;;;;;;;;;5093569;28;20432;-70
2022/01/19 12:25:00;;;;;;;16.45;5.88;;;;;;;;;;5092207;28;20384;-69
2022/01/19 12:27:26;;;;;;;10.23;4.97;;;;;;;;;;5093473;28;20414;-70
2022/01/19 12:29:59;;;;;;;12.25;4.57;;;;;;;;;;5092231;28;20072;-70
2022/01/19 12:32:26;;;;;;;11.35;4.68;;;;;;;;;;5092146;28;20020;-69
2022/01/19 12:34:52;;;;;;;10.65;4.38;;;;;;;;;;5092092;28;20032;-70
2022/01/19 12:37:27;;;;;;;11.88;4.72;;;;;;;;;;5091856;28;20423;-70
2022/01/19 12:39:56;;;;;;;12.32;4.40;;;;;;;;;;5092108;28;20468;-71
2022/01/19 12:42:31;;;;;;;14.30;4.75;;;;;;;;;;5093490;28;20032;-70
2022/01/19 12:44:58;;;;;;;11.80;4.07;;;;;;;;;;5092048;28;20024;-70
2022/01/19 12:47:25;;;;;;;12.73;4.88;;;;;;;;;;5093327;28;20473;-70
2022/01/19 12:50:11;;;;;;;12.85;4.35;;;;;;;;;;5093262;28;20103;-70
2022/01/19 12:52:47;;;;;;;13.57;4.45;;;;;;;;;;5061964;28;20024;-72
2022/01/19 12:55:13;;;;;;;12.27;5.40;;;;;;;;;;5091598;28;20032;-69
2022/01/19 12:57:40;;;;;;;13.57;6.35;;;;;;;;;;5091861;28;20036;-70
2022/01/19 13:00:08;;;;;;;18.42;5.95;;;;;;;;;;5091843;28;20024;-70
2022/01/19 13:02:34;;;;;;;18.23;6.47;;;;;;;;;;5091793;28;20032;-69
2022/01/19 13:05:20;;;;;;;13.13;5.93;;;;;;;;;;5093007;28;20016;-69
2022/01/19 13:07:54;;;;;;;23.92;7.10;;;;;;;;;;5093461;28;20035;-69
2022/01/19 13:10:27;;;;;;;17.10;6.43;;;;;;;;;;5093096;28;20027;-70
2022/01/19 13:13:06;;;;;;;18.17;6.60;;;;;;;;;;5094843;28;20024;-70
2022/01/19 13:15:43;;;;;;;14.27;7.05;;;;;;;;;;5097179;28;20028;-70
2022/01/19 13:18:10;;;;;;;14.27;6.60;;;;;;;;;;5095467;28;20109;-69
2022/01/19 13:20:36;;;;;;;15.85;7.28;;;;;;;;;;5096917;28;20459;-69
2022/01/19 13:23:06;;;;;;;17.73;7.05;;;;;;;;;;5095307;28;20063;-68
2022/01/19 13:25:33;;;;;;;16.02;7.90;;;;;;;;;;5096470;28;20048;-68
2022/01/19 13:28:00;;;;;;;16.77;7.95;;;;;;;;;;5095797;28;20145;-66
2022/01/19 13:30:28;;;;;;;16.23;7.40;;;;;;;;;;5096600;28;20511;-66
2022/01/19 13:32:54;;;;;;;16.67;8.20;;;;;;;;;;5095604;28;20046;-68
2022/01/19 13:35:21;;;;;;;18.00;7.65;;;;;;;;;;5095365;28;20119;-68
2022/01/19 13:37:54;;;;;;;20.00;8.20;;;;;;;;;;5096605;28;20054;-66
2022/01/19 13:40:25;;;;;;;25.63;9.25;;;;;;;;;;5096370;28;20023;-67
2022/01/19 13:42:56;;;;;;;17.80;7.70;;;;;;;;;;5095076;28;20043;-68
2022/01/19 13:48:48;;;;;;;19.17;7.60;;;;;;;;;;5096227;28;20046;-69
2022/01/19 13:50:49;;;;;;;15.10;7.63;;;;;;;;;;5088559;28;20111;-68
2022/01/19 13:53:15;;;;;;;19.20;7.22;;;;;;;;;;5094707;28;20020;-68
2022/01/19 13:55:42;;;;;;;18.02;7.95;;;;;;;;;;5094694;28;20047;-67
2022/01/19 13:58:09;;;;;;;16.60;7.35;;;;;;;;;;5095989;28;20020;-69
2022/01/19 14:00:37;;;;;;;17.23;7.57;;;;;;;;;;5094617;28;20028;-67
2022/01/19 14:03:09;;;;;;;17.58;7.80;;;;;;;;;;5095749;28;20012;-69
2022/01/19 14:05:40;;;;;;;22.27;8.30;;;;;;;;;;5096294;28;20541;-68
2022/01/19 14:08:06;;;;;;;24.60;7.85;;;;;;;;;;5094591;28;20109;-68
2022/01/19 14:10:43;;;;;;;21.88;9.63;;;;;;;;;;5094510;28;20052;-68
2022/01/19 14:13:29;;;;;;;23.20;10.52;;;;;;;;;;5095738;28;20031;-67
2022/01/19 14:16:19;;;;;;;22.08;7.85;;;;;;;;;;5094299;28;20028;-67
2022/01/19 14:19:05;;;;;;;17.00;8.50;;;;;;;;;;5087760;28;20488;-68
2022/01/19 14:21:31;;;;;;;22.20;8.50;;;;;;;;;;5094363;28;20023;-66
2022/01/19 14:24:01;;;;;;;19.75;8.95;;;;;;;;;;5094129;28;20122;-66
2022/01/19 14:26:27;;;;;;;19.45;9.10;;;;;;;;;;5094012;28;20489;-67
2022/01/19 14:29:23;;;;;;;20.67;9.20;;;;;;;;;;5094077;28;20032;-68
2022/01/19 14:31:53;;;;;;;20.73;8.63;;;;;;;;;;5067388;28;20427;-67
2022/01/19 14:34:37;;;;;;;29.85;10.40;;;;;;;;;;5093998;28;20106;-69
2022/01/19 14:37:10;;;;;;;22.00;8.05;;;;;;;;;;5092851;28;20408;-66
2022/01/19 14:39:46;;;;;;;19.88;8.80;;;;;;;;;;5073437;28;20500;-68
2022/01/19 14:42:12;;;;;;;24.13;8.98;;;;;;;;;;5093937;28;20112;-72
2022/01/19 14:44:43;;;;;;;27.98;10.40;;;;;;;;;;5093544;28;20369;-73
2022/01/19 14:47:26;;;;;;;22.08;9.18;;;;;;;;;;5093692;28;20067;-71
2022/01/19 14:49:52;;;;;;;22.13;9.65;;;;;;;;;;5093581;28;20555;-71
2022/01/19 14:52:18;;;;;;;22.17;8.65;;;;;;;;;;5094512;28;20028;-71
2022/01/19 14:54:45;;;;;;;26.92;9.18;;;;;;;;;;5093711;28;20028;-72
2022/01/19 14:57:11;;;;;;;23.35;8.68;;;;;;;;;;5093830;28;20043;-73
2022/01/19 14:59:39;;;;;;;20.67;9.18;;;;;;;;;;5094443;28;20461;-74
2022/01/19 15:02:06;;;;;;;23.63;10.35;;;;;;;;;;5093577;28;20058;-73
2022/01/19 15:04:35;;;;;;;24.27;10.73;;;;;;;;;;5093798;28;20024;-72
2022/01/19 15:07:02;;;;;;;23.67;10.07;;;;;;;;;;5093439;28;20028;-72
2022/01/19 15:09:29;;;;;;;24.40;10.02;;;;;;;;;;5093449;28;20063;-72
2022/01/19 15:11:55;;;;;;;28.05;10.38;;;;;;;;;;5094918;28;20385;-72
2022/01/19 15:14:21;;;;;;;24.90;9.65;;;;;;;;;;5093384;28;20118;-72
2022/01/19 15:16:48;;;;;;;24.52;10.68;;;;;;;;;;5093197;28;20218;-73
2022/01/19 15:19:15;;;;;;;34.38;12.75;;;;;;;;;;5094818;28;20028;-71
2022/01/19 15:21:42;;;;;;;32.20;12.55;;;;;;;;;;5094508;28;20028;-73
2022/01/19 15:24:08;;;;;;;43.92;15.85;;;;;;;;;;5096968;28;20488;-73
2022/01/19 15:26:34;;;;;;;26.77;11.90;;;;;;;;;;5094495;28;20090;-72
2022/01/19 15:29:01;;;;;;;30.17;12.93;;;;;;;;;;5094888;28;20454;-69
2022/01/19 15:31:28;;;;;;;31.42;12.73;;;;;;;;;;5094286;28;20020;-73
2022/01/19 15:33:54;;;;;;;39.35;14.13;;;;;;;;;;5094217;28;20024;-70
2022/01/19 15:36:21;;;;;;;36.65;15.18;;;;;;;;;;5092345;28;20036;-72
2022/01/19 15:38:48;;;;;;;35.28;15.68;;;;;;;;;;5094465;28;20377;-72
2022/01/19 15:41:14;;;;;;;35.58;11.80;;;;;;;;;;5092830;28;20119;-72
2022/01/19 15:43:41;;;;;;;25.13;10.75;;;;;;;;;;5094347;28;20032;-73
2022/01/19 15:46:09;;;;;;;30.50;10.45;;;;;;;;;;5092693;28;20070;-69
2022/01/19 15:48:35;;;;;;;29.35;10.38;;;;;;;;;;5094512;28;20107;-72
2022/01/19 15:51:03;;;;;;;29.00;11.45;;;;;;;;;;5092633;28;20065;-72
2022/01/19 15:53:31;;;;;;;33.15;10.90;;;;;;;;;;5092526;28;20073;-72
2022/01/19 15:55:59;;;;;;;26.05;9.40;;;;;;;;;;5092515;28;20032;-72
2022/01/19 15:58:26;;;;;;;19.98;8.95;;;;;;;;;;5092616;28;20024;-72
2022/01/19 16:00:52;;;;;;;26.83;9.85;;;;;;;;;;5094435;28;20032;-68
2022/01/19 16:03:19;;;;;;;25.20;9.57;;;;;;;;;;5092642;28;20024;-73
2022/01/19 16:05:46;;;;;;;21.73;8.73;;;;;;;;;;5093752;28;20020;-72
2022/01/19 16:08:13;;;;;;;21.40;9.60;;;;;;;;;;5092519;28;20063;-73
2022/01/19 16:10:41;;;;;;;19.67;9.02;;;;;;;;;;5093735;28;20115;-73
2022/01/19 16:13:07;;;;;;;27.63;11.60;;;;;;;;;;5092434;28;20088;-73
2022/01/19 16:15:34;;;;;;;28.05;11.63;;;;;;;;;;5093651;28;20115;-68
2022/01/19 16:18:01;;;;;;;30.98;12.70;;;;;;;;;;5093595;28;20433;-73
2022/01/19 16:20:29;;;;;;;28.60;13.02;;;;;;;;;;5092295;28;20168;-72
2022/01/19 16:28:27;;;;;;;146.13;45.25;;;;;;;;;;5093727;28;20120;-73
2022/01/19 16:30:53;;;;;;;97.55;33.55;;;;;;;;;;5093383;28;20032;-72